createdAt,value
2023-11-01T00:02:05.656Z,3.00
2023-11-01T00:04:32.876Z,2.20
2023-11-01T00:06:59.598Z,2.70
2023-11-01T00:09:26.644Z,2.60
2023-11-01T00:11:53.422Z,1.10
2023-11-01T00:14:20.212Z,1.70
2023-11-01T00:16:46.833Z,2.00
2023-11-01T00:19:13.613Z,2.00
2023-11-01T00:21:40.819Z,1.70
2023-11-01T00:24:08.403Z,2.10
2023-11-01T00:26:35.211Z,3.30
2023-11-01T00:29:02.333Z,2.90
2023-11-01T00:31:28.981Z,2.80
2023-11-01T00:33:55.736Z,1.80
2023-11-01T00:36:22.445Z,2.90
2023-11-01T00:38:49.506Z,1.50
2023-11-01T00:41:16.162Z,2.80
2023-11-01T00:43:42.795Z,1.70
2023-11-01T00:46:09.521Z,2.60
2023-11-01T00:48:36.189Z,1.80
2023-11-01T00:51:03.803Z,1.00
2023-11-01T00:53:30.692Z,1.20
2023-11-01T00:55:57.717Z,2.90
2023-11-01T00:58:24.428Z,2.00
2023-11-01T01:00:51.260Z,3.60
2023-11-01T01:03:18.205Z,3.00
2023-11-01T01:05:44.992Z,2.50
2023-11-01T01:08:11.834Z,2.10
2023-11-01T01:10:38.636Z,1.70
2023-11-01T01:13:05.499Z,2.10
2023-11-01T01:15:32.189Z,2.60
2023-11-01T01:17:59.460Z,4.10
2023-11-01T01:20:26.403Z,3.80
2023-11-01T01:22:53.095Z,2.10
2023-11-01T01:25:19.790Z,2.40
2023-11-01T01:27:46.473Z,3.70
2023-11-01T01:30:14.034Z,4.30
2023-11-01T01:32:40.803Z,2.40
2023-11-01T01:35:08.209Z,2.80
2023-11-01T01:37:34.903Z,2.80
2023-11-01T01:40:01.741Z,2.00
2023-11-01T01:42:28.331Z,2.20
2023-11-01T01:44:55.076Z,1.00
2023-11-01T01:47:22.034Z,3.10
2023-11-01T01:49:49.264Z,2.10
2023-11-01T01:52:16.596Z,1.80
2023-11-01T01:54:44.072Z,2.20
2023-11-01T01:57:11.795Z,2.10
2023-11-01T01:59:39.643Z,3.00
2023-11-01T02:02:09.148Z,2.20
2023-11-01T02:04:37.406Z,2.10
2023-11-01T02:07:04.953Z,0.50
2023-11-01T02:09:31.610Z,2.60
2023-11-01T02:11:58.301Z,2.30
2023-11-01T02:14:25.034Z,3.80
2023-11-01T02:16:51.929Z,1.30
2023-11-01T02:19:18.797Z,3.00
2023-11-01T02:21:45.641Z,2.10
2023-11-01T02:24:12.408Z,1.60
2023-11-01T02:26:39.188Z,1.70
2023-11-01T02:29:06.419Z,0.70
2023-11-01T02:31:33.459Z,1.60
2023-11-01T02:34:00.220Z,3.10
2023-11-01T02:36:26.833Z,2.30
2023-11-01T02:38:53.599Z,2.30
2023-11-01T02:41:20.288Z,2.30
2023-11-01T02:43:47.102Z,3.20
2023-11-01T02:46:13.743Z,2.30
2023-11-01T02:48:40.340Z,2.50
2023-11-01T02:51:07.232Z,2.40
2023-11-01T02:53:33.922Z,2.70
2023-11-01T02:56:01.161Z,3.10
2023-11-01T02:58:29.685Z,2.80
2023-11-01T03:00:56.284Z,3.60
2023-11-01T03:03:23.092Z,2.50
2023-11-01T03:05:50.755Z,2.60
2023-11-01T03:08:17.417Z,3.50
2023-11-01T03:10:44.177Z,2.90
2023-11-01T03:13:10.829Z,1.90
2023-11-01T03:15:38.420Z,2.40
2023-11-01T03:18:06.143Z,2.50
2023-11-01T03:20:34.477Z,1.80
2023-11-01T03:23:02.408Z,2.60
2023-11-01T03:25:29.315Z,2.60
2023-11-01T03:27:56.030Z,2.70
2023-11-01T03:30:25.527Z,3.30
2023-11-01T03:32:52.337Z,2.20
2023-11-01T03:35:19.129Z,1.10
2023-11-01T03:37:45.758Z,5.30
2023-11-01T03:40:12.467Z,4.00
2023-11-01T03:42:39.196Z,1.60
2023-11-01T03:45:07.082Z,2.90
2023-11-01T03:47:33.773Z,1.70
2023-11-01T03:50:01.567Z,2.50
2023-11-01T03:52:28.556Z,2.00
2023-11-01T03:54:55.211Z,3.20
2023-11-01T03:57:21.986Z,2.10
2023-11-01T03:59:48.664Z,2.60
2023-11-01T04:02:15.465Z,2.20
2023-11-01T04:04:42.560Z,1.90
2023-11-01T04:07:09.247Z,2.60
2023-11-01T04:09:36.047Z,2.80
2023-11-01T04:12:02.800Z,3.00
2023-11-01T04:14:29.409Z,1.80
2023-11-01T04:16:57.213Z,2.20
2023-11-01T04:19:24.372Z,1.90
2023-11-01T04:21:51.193Z,2.20
2023-11-01T04:24:17.864Z,1.40
2023-11-01T04:26:46.531Z,2.60
2023-11-01T04:29:13.541Z,2.70
2023-11-01T04:31:40.330Z,3.00
2023-11-01T04:34:07.083Z,2.40
2023-11-01T04:36:36.736Z,2.20
2023-11-01T04:39:04.737Z,3.30
2023-11-01T04:41:31.731Z,2.70
2023-11-01T04:43:58.476Z,2.70
2023-11-01T04:46:25.253Z,4.00
2023-11-01T04:48:52.133Z,3.30
2023-11-01T04:51:19.026Z,2.90
2023-11-01T04:53:47.485Z,2.00
2023-11-01T04:56:14.276Z,1.10
2023-11-01T04:58:41.696Z,1.70
2023-11-01T05:01:09.298Z,1.90
2023-11-01T05:03:40.275Z,2.80
2023-11-01T05:06:07.729Z,2.90
2023-11-01T05:08:36.341Z,2.00
2023-11-01T05:11:03.647Z,3.10
2023-11-01T05:13:30.458Z,2.10
2023-11-01T05:15:57.267Z,2.50
2023-11-01T05:18:25.807Z,2.30
2023-11-01T05:20:52.913Z,2.10
2023-11-01T05:23:20.322Z,3.00
2023-11-01T05:25:50.074Z,2.50
2023-11-01T05:28:16.928Z,2.50
2023-11-01T05:30:43.637Z,2.40
2023-11-01T05:33:10.426Z,2.60
2023-11-01T05:35:38.248Z,3.40
2023-11-01T05:38:08.238Z,3.40
2023-11-01T05:40:34.902Z,3.80
2023-11-01T05:43:01.508Z,3.20
2023-11-01T05:45:28.290Z,1.50
2023-11-01T05:47:55.210Z,4.00
2023-11-01T05:50:25.727Z,2.30
2023-11-01T05:52:54.352Z,2.30
2023-11-01T05:55:26.456Z,1.90
2023-11-01T05:58:01.268Z,1.90
2023-11-01T06:00:28.273Z,3.60
2023-11-01T06:02:55.207Z,3.20
2023-11-01T06:05:24.049Z,2.50
2023-11-01T06:07:51.456Z,2.60
2023-11-01T06:10:19.216Z,2.30
2023-11-01T06:12:46.135Z,2.30
2023-11-01T06:15:13.244Z,2.70
2023-11-01T06:17:40.214Z,2.10
2023-11-01T06:20:08.263Z,2.00
2023-11-01T06:22:35.209Z,1.80
2023-11-01T06:25:02.672Z,3.70
2023-11-01T06:27:29.756Z,2.60
2023-11-01T06:29:57.169Z,3.70
2023-11-01T06:32:23.833Z,2.20
2023-11-01T06:34:50.553Z,2.30
2023-11-01T06:37:22.402Z,2.40
2023-11-01T06:39:49.177Z,3.00
2023-11-01T06:42:15.840Z,1.90
2023-11-01T06:44:42.443Z,1.70
2023-11-01T06:47:09.285Z,2.00
2023-11-01T06:49:35.944Z,2.40
2023-11-01T06:52:02.662Z,2.10
2023-11-01T06:54:29.419Z,1.20
2023-11-01T06:56:57.544Z,2.20
2023-11-01T06:59:24.761Z,3.00
2023-11-01T07:01:52.663Z,2.30
2023-11-01T07:04:19.432Z,1.70
2023-11-01T07:06:46.110Z,2.30
2023-11-01T07:09:12.791Z,2.10
2023-11-01T07:11:39.750Z,1.40
2023-11-01T07:14:06.423Z,2.30
2023-11-01T07:16:35.531Z,2.10
2023-11-01T07:19:02.118Z,1.60
2023-11-01T07:21:28.792Z,2.30
2023-11-01T07:23:55.447Z,1.40
2023-11-01T07:26:22.144Z,3.10
2023-11-01T07:28:48.864Z,3.20
2023-11-01T07:31:16.440Z,2.80
2023-11-01T07:33:44.190Z,2.10
2023-11-01T07:36:11.944Z,1.80
2023-11-01T07:38:41.514Z,2.50
2023-11-01T07:41:09.891Z,2.50
2023-11-01T07:43:36.810Z,1.90
2023-11-01T07:46:04.011Z,3.00
2023-11-01T07:48:30.763Z,2.10
2023-11-01T07:50:57.614Z,1.10
2023-11-01T07:53:24.358Z,2.40
2023-11-01T07:55:54.509Z,3.50
2023-11-01T07:58:21.365Z,2.10
2023-11-01T08:00:48.123Z,2.10
2023-11-01T08:03:14.886Z,2.90
2023-11-01T08:05:41.888Z,3.30
2023-11-01T08:08:09.765Z,2.80
2023-11-01T08:10:36.544Z,2.50
2023-11-01T08:13:03.233Z,2.40
2023-11-01T08:15:34.222Z,2.70
2023-11-01T08:18:04.637Z,1.20
2023-11-01T08:20:31.479Z,2.50
2023-11-01T08:22:58.760Z,2.30
2023-11-01T08:25:25.689Z,1.50
2023-11-01T08:27:52.602Z,2.10
2023-11-01T08:30:19.587Z,2.30
2023-11-01T08:32:46.714Z,1.80
2023-11-01T08:35:13.869Z,4.10
2023-11-01T08:37:41.431Z,3.10
2023-11-01T08:40:09.211Z,1.60
2023-11-01T08:42:36.353Z,2.40
2023-11-01T08:45:03.496Z,3.20
2023-11-01T08:47:46.262Z,1.70
2023-11-01T08:50:14.763Z,2.90
2023-11-01T08:52:46.301Z,3.00
2023-11-01T08:55:17.433Z,2.60
2023-11-01T08:57:46.404Z,2.90
2023-11-01T09:00:17.350Z,3.60
2023-11-01T09:02:44.171Z,1.80
2023-11-01T09:05:11.587Z,3.70
2023-11-01T09:07:39.941Z,1.50
2023-11-01T09:10:10.408Z,2.90
2023-11-01T09:12:38.127Z,1.70
2023-11-01T09:15:06.226Z,2.90
2023-11-01T09:17:32.976Z,2.60
2023-11-01T09:19:59.546Z,1.40
2023-11-01T09:22:26.599Z,2.60
2023-11-01T09:24:53.675Z,1.90
2023-11-01T09:27:20.328Z,2.30
2023-11-01T09:29:46.991Z,1.60
2023-11-01T09:32:13.929Z,2.50
2023-11-01T09:34:42.090Z,3.70
2023-11-01T09:37:08.931Z,2.40
2023-11-01T09:39:35.573Z,3.70
2023-11-01T09:42:10.504Z,2.60
2023-11-01T09:44:37.483Z,3.00
2023-11-01T09:47:05.492Z,2.00
2023-11-01T09:49:33.224Z,3.40
2023-11-01T09:52:04.373Z,2.30
2023-11-01T09:54:31.031Z,3.40
2023-11-01T09:56:58.265Z,2.90
2023-11-01T09:59:25.577Z,2.70
2023-11-01T10:01:53.757Z,2.70
2023-11-01T10:04:20.700Z,2.70
2023-11-01T10:06:47.545Z,3.20
2023-11-01T10:09:14.759Z,2.20
2023-11-01T10:11:44.618Z,3.50
2023-11-01T10:14:11.947Z,3.30
2023-11-01T10:16:40.197Z,3.10
2023-11-01T10:19:08.507Z,3.30
2023-11-01T10:21:35.147Z,2.80
2023-11-01T10:24:04.164Z,2.60
2023-11-01T10:26:31.782Z,3.90
2023-11-01T10:29:00.772Z,2.90
2023-11-01T10:31:27.410Z,2.30
2023-11-01T10:33:54.399Z,3.90
2023-11-01T10:36:22.024Z,1.80
2023-11-01T10:38:54.527Z,2.30
2023-11-01T10:41:21.939Z,2.60
2023-11-01T10:43:49.172Z,2.80
2023-11-01T10:46:18.172Z,2.00
2023-11-01T10:48:48.129Z,3.20
2023-11-01T10:51:15.562Z,1.20
2023-11-01T10:53:45.488Z,1.60
2023-11-01T10:56:12.909Z,1.30
2023-11-01T10:58:45.243Z,2.10
2023-11-01T11:01:27.453Z,1.20
2023-11-01T11:04:25.026Z,2.60
2023-11-01T11:07:24.904Z,1.60
2023-11-01T11:10:44.519Z,1.70
2023-11-01T11:13:12.329Z,3.00
2023-11-01T11:15:58.114Z,4.10
2023-11-01T11:18:29.218Z,2.30
2023-11-01T11:21:00.018Z,2.60
2023-11-01T11:23:35.432Z,2.20
2023-11-01T11:26:04.435Z,2.20
2023-11-01T11:28:39.201Z,3.00
2023-11-01T11:31:09.046Z,3.20
2023-11-01T11:33:49.049Z,2.70
2023-11-01T11:36:25.344Z,2.80
2023-11-01T11:39:05.157Z,1.50
2023-11-01T11:41:38.008Z,2.60
2023-11-01T11:44:08.630Z,3.90
2023-11-01T11:46:51.194Z,2.50
2023-11-01T11:49:25.391Z,2.70
2023-11-01T11:52:01.854Z,2.00
2023-11-01T11:54:31.825Z,2.70
2023-11-01T11:57:12.667Z,3.90
2023-11-01T11:59:41.066Z,3.20
2023-11-01T12:02:13.868Z,2.30
2023-11-01T12:04:43.118Z,5.90
2023-11-01T12:07:19.568Z,2.70
2023-11-01T12:09:52.386Z,2.20
2023-11-01T12:12:20.373Z,2.30
2023-11-01T12:15:03.116Z,2.90
2023-11-01T12:17:31.642Z,2.80
2023-11-01T12:19:59.536Z,2.20
2023-11-01T12:22:26.954Z,1.90
2023-11-01T12:24:57.155Z,1.60
2023-11-01T12:27:33.302Z,3.00
2023-11-01T12:30:02.451Z,2.20
2023-11-01T12:32:40.191Z,1.70
2023-11-01T12:35:08.868Z,2.00
2023-11-01T12:37:38.686Z,2.00
2023-11-01T12:40:14.312Z,1.30
2023-11-01T12:42:48.214Z,2.30
2023-11-01T12:45:16.533Z,2.50
2023-11-01T12:47:58.606Z,1.10
2023-11-01T12:50:29.783Z,2.60
2023-11-01T12:52:57.059Z,0.90
2023-11-01T12:55:25.496Z,3.80
2023-11-01T12:58:01.286Z,3.10
2023-11-01T13:00:32.260Z,3.30
2023-11-01T13:03:00.526Z,2.60
2023-11-01T13:05:27.762Z,2.60
2023-11-01T13:07:58.540Z,1.50
2023-11-01T13:10:26.093Z,1.90
2023-11-01T13:12:53.285Z,1.80
2023-11-01T13:15:20.446Z,2.30
2023-11-01T13:17:49.994Z,2.20
2023-11-01T13:20:17.124Z,2.30
2023-11-01T13:22:43.930Z,1.10
2023-11-01T13:25:10.816Z,2.10
2023-11-01T13:27:37.533Z,2.50
2023-11-01T13:30:04.880Z,2.70
2023-11-01T13:32:31.923Z,2.00
2023-11-01T13:34:59.041Z,2.00
2023-11-01T13:37:25.747Z,3.10
2023-11-01T13:39:52.449Z,2.50
2023-11-01T13:42:19.273Z,3.80
2023-11-01T13:44:46.017Z,3.00
2023-11-01T13:47:14.430Z,1.50
2023-11-01T13:49:42.839Z,3.20
2023-11-01T13:52:12.773Z,2.00
2023-11-01T13:54:40.593Z,2.50
2023-11-01T13:57:07.434Z,2.60
2023-11-01T13:59:34.189Z,2.10
2023-11-01T14:02:00.940Z,3.10
2023-11-01T14:04:27.883Z,2.20
2023-11-01T14:06:55.140Z,2.50
2023-11-01T14:09:22.472Z,2.40
2023-11-01T14:11:52.855Z,2.40
2023-11-01T14:14:22.622Z,2.40
2023-11-01T14:16:49.485Z,2.50
2023-11-01T14:19:16.263Z,2.40
2023-11-01T14:21:42.910Z,2.40
2023-11-01T14:24:11.090Z,1.70
2023-11-01T14:26:38.903Z,2.30
2023-11-01T14:29:06.011Z,2.20
2023-11-01T14:31:32.637Z,2.50
2023-11-01T14:33:59.424Z,3.50
2023-11-01T14:36:26.075Z,2.40
2023-11-01T14:38:52.734Z,4.00
2023-11-01T14:41:20.631Z,2.10
2023-11-01T14:43:48.071Z,2.10
2023-11-01T14:46:17.279Z,3.40
2023-11-01T14:48:46.136Z,3.00
2023-11-01T14:51:13.112Z,4.40
2023-11-01T14:53:41.695Z,3.10
2023-11-01T14:56:17.658Z,3.00
2023-11-01T14:58:48.646Z,3.20
2023-11-01T15:01:17.010Z,3.10
2023-11-01T15:03:46.391Z,3.70
2023-11-01T15:06:17.550Z,3.50
2023-11-01T15:08:46.901Z,3.20
2023-11-01T15:11:14.484Z,2.80
2023-11-01T15:13:41.164Z,3.00
2023-11-01T15:16:08.490Z,2.90
2023-11-01T15:18:39.271Z,3.30
2023-11-01T15:21:09.912Z,3.40
2023-11-01T15:23:39.425Z,3.20
2023-11-01T15:26:06.511Z,2.50
2023-11-01T15:28:34.186Z,3.00
2023-11-01T15:31:00.899Z,2.30
2023-11-01T15:33:28.412Z,4.10
2023-11-01T15:35:55.140Z,3.80
2023-11-01T15:38:22.051Z,3.70
2023-11-01T15:40:48.981Z,4.00
2023-11-01T15:43:16.400Z,2.60
2023-11-01T15:45:47.308Z,4.90
2023-11-01T15:48:14.177Z,4.40
2023-11-01T15:50:42.808Z,3.30
2023-11-01T15:53:09.826Z,4.20
2023-11-01T15:55:36.574Z,5.80
2023-11-01T15:58:03.323Z,3.20
2023-11-01T16:00:30.805Z,4.60
2023-11-01T16:02:57.690Z,4.50
2023-11-01T16:05:24.501Z,4.30
2023-11-01T16:07:51.260Z,4.80
2023-11-01T16:10:18.095Z,4.00
2023-11-01T16:12:45.624Z,6.00
2023-11-01T16:15:12.967Z,5.70
2023-11-01T16:17:39.644Z,4.80
2023-11-01T16:20:07.665Z,6.50
2023-11-01T16:22:34.307Z,7.70
2023-11-01T16:25:00.963Z,7.30
2023-11-01T16:27:27.578Z,6.20
2023-11-01T16:29:54.270Z,6.50
2023-11-01T16:32:20.867Z,5.90
2023-11-01T16:34:47.612Z,6.20
2023-11-01T16:37:14.476Z,6.90
2023-11-01T16:39:41.070Z,7.90
2023-11-01T16:42:15.361Z,8.60
2023-11-01T16:44:42.928Z,7.50
2023-11-01T16:47:10.402Z,5.30
2023-11-01T16:49:43.198Z,5.70
2023-11-01T16:52:11.567Z,6.60
2023-11-01T16:54:38.093Z,6.60
2023-11-01T16:57:05.834Z,7.90
2023-11-01T16:59:32.963Z,9.90
2023-11-01T17:02:00.717Z,9.30
2023-11-01T17:04:28.405Z,10.90
2023-11-01T17:06:55.304Z,8.50
2023-11-01T17:09:22.148Z,10.20
2023-11-01T17:11:48.839Z,7.40
2023-11-01T17:14:15.508Z,7.90
2023-11-01T17:16:42.091Z,6.60
2023-11-01T17:19:08.896Z,7.30
2023-11-01T17:21:35.622Z,7.80
2023-11-01T17:24:27.381Z,6.90
2023-11-01T17:26:58.626Z,7.50
2023-11-01T17:29:33.411Z,8.00
2023-11-01T17:32:00.333Z,7.80
2023-11-01T17:34:32.544Z,8.80
2023-11-01T17:37:04.489Z,10.30
2023-11-01T17:39:41.876Z,10.50
2023-11-01T17:42:12.716Z,9.90
2023-11-01T17:44:41.704Z,8.80
2023-11-01T17:47:14.120Z,10.40
2023-11-01T17:49:45.074Z,9.90
2023-11-01T17:52:18.498Z,8.20
2023-11-01T17:54:50.354Z,8.40
2023-11-01T17:57:20.461Z,8.10
2023-11-01T17:59:48.688Z,8.20
2023-11-01T18:03:02.977Z,7.90
2023-11-01T18:05:37.009Z,9.60
2023-11-01T18:08:10.628Z,6.70
2023-11-01T18:10:43.909Z,8.60
2023-11-01T18:13:18.583Z,8.10
2023-11-01T18:15:47.957Z,8.00
2023-11-01T18:18:46.389Z,7.00
2023-11-01T18:21:18.754Z,7.10
2023-11-01T18:23:55.345Z,6.20
2023-11-01T18:26:23.257Z,6.80
2023-11-01T18:28:53.484Z,8.00
2023-11-01T18:31:37.983Z,8.50
2023-11-01T18:34:07.287Z,8.50
2023-11-01T18:36:48.093Z,7.30
2023-11-01T18:39:23.548Z,8.50
2023-11-01T18:41:51.548Z,7.60
2023-11-01T18:44:28.249Z,9.10
2023-11-01T18:46:57.427Z,10.10
2023-11-01T18:49:46.330Z,8.50
2023-11-01T18:52:13.810Z,9.60
2023-11-01T18:54:42.798Z,11.40
2023-11-01T18:57:15.835Z,9.60
2023-11-01T18:59:44.304Z,12.30
2023-11-01T19:02:36.889Z,10.30
2023-11-01T19:05:11.032Z,9.10
2023-11-01T19:07:43.817Z,11.80
2023-11-01T19:10:24.486Z,8.70
2023-11-01T19:12:54.694Z,7.70
2023-11-01T19:15:38.229Z,7.50
2023-11-01T19:18:11.204Z,8.50
2023-11-01T19:20:41.731Z,7.80
2023-11-01T19:23:08.528Z,11.30
2023-11-01T19:25:36.109Z,7.90
2023-11-01T19:28:05.518Z,7.00
2023-11-01T19:30:32.912Z,7.20
2023-11-01T19:33:02.774Z,7.80
2023-11-01T19:35:30.390Z,8.20
2023-11-01T19:37:57.420Z,8.10
2023-11-01T19:40:25.029Z,9.10
2023-11-01T19:42:56.258Z,10.20
2023-11-01T19:45:22.922Z,7.70
2023-11-01T19:47:49.633Z,8.60
2023-11-01T19:50:32.771Z,7.30
2023-11-01T19:52:59.620Z,7.80
2023-11-01T19:55:27.273Z,6.20
2023-11-01T19:57:54.228Z,8.00
2023-11-01T20:00:21.669Z,6.90
2023-11-01T20:02:48.562Z,7.00
2023-11-01T20:05:15.980Z,7.10
2023-11-01T20:07:42.727Z,7.40
2023-11-01T20:10:13.673Z,6.50
2023-11-01T20:12:41.190Z,6.00
2023-11-01T20:15:10.325Z,4.90
2023-11-01T20:17:38.148Z,5.70
2023-11-01T20:20:08.254Z,6.00
2023-11-01T20:22:43.940Z,5.50
2023-11-01T20:25:13.471Z,4.90
2023-11-01T20:27:42.436Z,6.20
2023-11-01T20:30:09.525Z,5.50
2023-11-01T20:32:37.122Z,5.20
2023-11-01T20:35:04.360Z,5.80
2023-11-01T20:37:31.540Z,6.10
2023-11-01T20:39:58.189Z,6.30
2023-11-01T20:42:24.927Z,4.70
2023-11-01T20:44:51.795Z,5.00
2023-11-01T20:47:19.709Z,5.20
2023-11-01T20:49:47.970Z,4.90
2023-11-01T20:52:15.205Z,5.00
2023-11-01T20:54:54.723Z,5.30
2023-11-01T20:57:26.189Z,5.50
2023-11-01T20:59:52.965Z,4.90
2023-11-01T21:02:19.736Z,6.40
2023-11-01T21:04:46.531Z,5.40
2023-11-01T21:07:13.432Z,6.30
2023-11-01T21:09:40.148Z,9.10
2023-11-01T21:12:07.326Z,5.70
2023-11-01T21:14:37.915Z,6.40
2023-11-01T21:17:07.428Z,5.40
2023-11-01T21:19:34.586Z,8.70
2023-11-01T21:22:01.767Z,5.80
2023-11-01T21:24:28.645Z,4.80
2023-11-01T21:26:56.038Z,6.20
2023-11-01T21:29:22.843Z,6.40
2023-11-01T21:31:49.810Z,7.10
2023-11-01T21:34:16.727Z,6.20
2023-11-01T21:36:43.532Z,5.80
2023-11-01T21:39:13.789Z,6.10
2023-11-01T21:41:41.589Z,5.30
2023-11-01T21:44:09.271Z,4.90
2023-11-01T21:46:36.643Z,6.40
2023-11-01T21:49:16.957Z,5.90
2023-11-01T21:51:43.634Z,6.40
2023-11-01T21:54:28.335Z,4.50
2023-11-01T21:56:55.575Z,5.70
2023-11-01T21:59:22.657Z,5.60
2023-11-01T22:01:51.283Z,5.80
2023-11-01T22:04:22.559Z,4.40
2023-11-01T22:06:52.117Z,4.70
2023-11-01T22:09:19.779Z,4.50
2023-11-01T22:11:52.281Z,5.60
2023-11-01T22:14:33.163Z,4.60
2023-11-01T22:17:03.174Z,5.60
2023-11-01T22:19:38.666Z,4.70
2023-11-01T22:22:34.850Z,7.20
2023-11-01T22:25:01.483Z,5.30
2023-11-01T22:27:41.305Z,5.00
2023-11-01T22:30:08.780Z,5.60
2023-11-01T22:32:35.580Z,6.40
2023-11-01T22:35:02.358Z,4.90
2023-11-01T22:37:29.650Z,5.80
2023-11-01T22:39:57.385Z,12.80
2023-11-01T22:42:31.400Z,6.50
2023-11-01T22:45:02.644Z,5.30
2023-11-01T22:47:30.871Z,6.00
2023-11-01T22:49:57.874Z,5.70
2023-11-01T22:52:24.582Z,5.50
2023-11-01T22:54:51.212Z,5.00
2023-11-01T22:57:17.890Z,5.30
2023-11-01T22:59:44.760Z,5.50
2023-11-01T23:02:14.200Z,6.00
2023-11-01T23:04:42.593Z,4.60
2023-11-01T23:07:10.905Z,4.60
2023-11-01T23:09:38.238Z,5.50
2023-11-01T23:12:05.722Z,4.90
2023-11-01T23:14:32.331Z,5.40
2023-11-01T23:16:59.286Z,6.10
2023-11-01T23:19:26.074Z,6.40
2023-11-01T23:21:52.712Z,5.60
2023-11-01T23:24:20.592Z,6.30
2023-11-01T23:26:55.540Z,5.40
2023-11-01T23:29:30.775Z,4.30
2023-11-01T23:31:58.519Z,5.80
2023-11-01T23:34:46.225Z,5.40
2023-11-01T23:37:19.885Z,6.30
2023-11-01T23:39:46.861Z,6.80
2023-11-01T23:42:16.229Z,8.80
2023-11-01T23:44:43.274Z,7.10
2023-11-01T23:47:15.398Z,6.30
2023-11-01T23:49:58.331Z,6.20
2023-11-01T23:52:30.470Z,6.20
2023-11-01T23:54:59.151Z,6.50
2023-11-01T23:57:31.242Z,6.40
2023-11-01T23:59:58.871Z,6.60
